Time;durP1;ratioP1;P1;durP2;ratioP2;P2;SDS_P1;SDS_P2;PMS_P1;PMS_P2;Temp;Humidity;BMP_temperature;BMP_pressure;BME280_temperature;BME280_humidity;BME280_pressure;Samples;Min_cycle;Max_cycle;Signal;HPM_P1;HPM_P2
2022/12/20 00:00:59;;;;;;;6.60;3.50;;;8.40;99.90;;;;;;5067014;28;20434;-77
2022/12/20 00:03:25;;;;;;;6.07;3.85;;;8.40;99.90;;;;;;5087729;28;20048;-77
2022/12/20 00:05:52;;;;;;;5.53;3.22;;;8.50;99.90;;;;;;5087508;28;20047;-76
2022/12/20 00:08:18;;;;;;;4.45;2.75;;;8.50;99.90;;;;;;5081582;28;20039;-76
2022/12/20 00:10:44;;;;;;;4.55;3.25;;;8.50;99.90;;;;;;5061747;28;20043;-77
2022/12/20 00:13:12;;;;;;;5.03;3.60;;;8.50;99.90;;;;;;5089280;28;20564;-76
2022/12/20 00:15:38;;;;;;;3.90;3.00;;;8.50;99.90;;;;;;5088995;28;20032;-76
2022/12/20 00:18:05;;;;;;;4.05;3.25;;;8.50;99.90;;;;;;5065169;28;20040;-76
2022/12/20 00:20:31;;;;;;;5.25;2.83;;;8.50;99.90;;;;;;5088649;28;20414;-77
2022/12/20 00:22:57;;;;;;;5.88;3.22;;;8.50;99.90;;;;;;5070839;28;20028;-76
2022/12/20 00:25:24;;;;;;;3.58;3.13;;;8.50;99.90;;;;;;5087610;28;20530;-76
2022/12/20 00:27:50;;;;;;;3.72;2.50;;;8.50;99.90;;;;;;5064262;28;20046;-76
2022/12/20 00:30:17;;;;;;;4.60;3.15;;;8.50;99.90;;;;;;5087231;28;20039;-76
2022/12/20 00:32:44;;;;;;;8.20;4.13;;;8.60;99.90;;;;;;5087806;28;20487;-76
2022/12/20 00:35:11;;;;;;;4.28;3.13;;;8.60;99.90;;;;;;5087288;28;20418;-76
2022/12/20 00:37:38;;;;;;;3.45;2.95;;;8.60;99.90;;;;;;5064294;28;20039;-77
2022/12/20 00:40:05;;;;;;;4.22;2.55;;;8.70;99.90;;;;;;5088254;28;20032;-77
2022/12/20 00:42:32;;;;;;;4.40;2.40;;;8.80;99.90;;;;;;5088287;28;20044;-76
2022/12/20 00:44:58;;;;;;;3.10;2.75;;;8.80;99.90;;;;;;5088175;28;20036;-76
2022/12/20 00:47:24;;;;;;;3.55;2.85;;;8.90;99.90;;;;;;5063299;28;20500;-76
2022/12/20 00:49:51;;;;;;;3.83;2.40;;;9.00;99.90;;;;;;5056476;28;20048;-76
2022/12/20 00:52:17;;;;;;;3.22;2.30;;;9.00;99.90;;;;;;5070527;28;20063;-77
2022/12/20 00:54:43;;;;;;;5.72;2.42;;;9.10;99.90;;;;;;5088064;28;20036;-77
2022/12/20 00:57:10;;;;;;;4.03;2.08;;;9.20;99.90;;;;;;5081070;28;20036;-76
2022/12/20 00:59:36;;;;;;;5.35;2.08;;;9.20;99.90;;;;;;5083778;28;20028;-77
2022/12/20 01:02:02;;;;;;;3.95;2.15;;;9.20;99.90;;;;;;5063740;28;20052;-76
2022/12/20 01:04:29;;;;;;;3.88;2.42;;;9.30;99.90;;;;;;5086152;28;20044;-76
2022/12/20 01:06:55;;;;;;;3.50;2.47;;;9.30;99.90;;;;;;5062279;28;20040;-76
2022/12/20 01:09:22;;;;;;;3.55;2.05;;;9.30;99.90;;;;;;5086020;28;20453;-76
2022/12/20 01:11:49;;;;;;;3.50;1.83;;;9.40;99.90;;;;;;5070530;28;20043;-77
2022/12/20 01:14:16;;;;;;;5.70;1.80;;;9.40;99.90;;;;;;5069028;28;20039;-77
2022/12/20 01:16:45;;;;;;;3.40;2.42;;;9.50;99.90;;;;;;5082842;28;20069;-76
2022/12/20 01:19:16;;;;;;;2.97;1.95;;;9.40;99.90;;;;;;5073702;28;20043;-76
2022/12/20 01:21:45;;;;;;;4.10;1.70;;;9.50;99.90;;;;;;5069798;28;20079;-75
2022/12/20 01:24:13;;;;;;;3.22;1.88;;;9.50;99.90;;;;;;5069919;28;20036;-78
2022/12/20 01:26:39;;;;;;;3.95;2.15;;;9.50;99.90;;;;;;5072224;28;20047;-77
2022/12/20 01:29:06;;;;;;;4.57;2.28;;;9.50;99.90;;;;;;5084492;28;20032;-77
2022/12/20 01:31:32;;;;;;;4.22;2.03;;;9.50;99.90;;;;;;5086437;28;20486;-77
2022/12/20 01:33:59;;;;;;;5.05;2.60;;;9.50;99.90;;;;;;5069146;28;20044;-77
2022/12/20 01:36:30;;;;;;;4.43;2.75;;;9.50;99.90;;;;;;5066550;28;20381;-77
2022/12/20 01:38:59;;;;;;;3.45;1.60;;;9.50;99.90;;;;;;5048607;28;20032;-76
2022/12/20 01:41:26;;;;;;;2.70;2.13;;;9.50;99.90;;;;;;5069583;28;20044;-77
2022/12/20 01:44:13;;;;;;;3.97;1.75;;;9.50;99.90;;;;;;5086737;28;20036;-77
2022/12/20 01:46:39;;;;;;;1.85;1.17;;;9.50;99.90;;;;;;5065875;28;20047;-76
2022/12/20 01:49:15;;;;;;;3.47;1.40;;;9.50;99.90;;;;;;5066737;28;20043;-78
2022/12/20 01:52:13;;;;;;;4.10;1.38;;;9.50;99.90;;;;;;5086781;28;20039;-78
2022/12/20 01:54:47;;;;;;;2.60;1.65;;;9.50;99.90;;;;;;5085757;28;20764;-78
2022/12/20 01:57:17;;;;;;;2.58;1.65;;;9.50;99.90;;;;;;5062392;28;20580;-80
2022/12/20 01:59:47;;;;;;;5.80;1.88;;;9.40;99.90;;;;;;5069505;28;20036;-78
2022/12/20 02:02:13;;;;;;;4.13;1.77;;;9.40;99.90;;;;;;5086394;28;20379;-78
2022/12/20 02:04:40;;;;;;;3.92;1.90;;;9.40;99.90;;;;;;5068654;28;20646;-78
2022/12/20 02:07:09;;;;;;;3.42;2.42;;;9.40;99.90;;;;;;5079932;28;20051;-79
2022/12/20 02:09:37;;;;;;;3.28;1.90;;;9.40;99.90;;;;;;5087430;28;20383;-79
2022/12/20 02:12:14;;;;;;;4.13;1.63;;;9.30;99.90;;;;;;5069113;28;20040;-79
2022/12/20 02:15:03;;;;;;;5.05;2.63;;;9.30;99.90;;;;;;5068598;28;20403;-80
2022/12/20 02:18:07;;;;;;;4.68;2.28;;;9.30;99.90;;;;;;5062860;28;20039;-79
2022/12/20 02:20:51;;;;;;;3.33;1.98;;;9.20;99.90;;;;;;5085951;28;20591;-80
2022/12/20 02:23:44;;;;;;;5.55;2.67;;;9.20;99.90;;;;;;5082557;28;20036;-80
2022/12/20 02:26:17;;;;;;;;;;;9.20;99.90;;;;;;5069721;28;20036;-80
2022/12/20 02:28:58;;;;;;;5.03;2.58;;;9.20;99.90;;;;;;5052626;28;19919;-81
2022/12/20 02:31:31;;;;;;;2.88;2.13;;;9.20;99.90;;;;;;5068681;28;20627;-81
2022/12/20 02:34:01;;;;;;;3.63;2.55;;;9.10;99.90;;;;;;5100238;28;20020;-80
2022/12/20 02:36:27;;;;;;;3.45;2.75;;;9.10;99.90;;;;;;5082146;28;20048;-80
2022/12/20 02:38:54;;;;;;;4.18;2.25;;;9.20;99.90;;;;;;5082863;28;20043;-81
2022/12/20 02:41:36;;;;;;;5.07;2.80;;;9.10;99.90;;;;;;5085168;28;20443;-80
2022/12/20 02:47:01;;;;;;;4.47;2.58;;;9.20;99.90;;;;;;5078859;28;20660;-79
2022/12/20 02:49:31;;;;;;;3.75;2.42;;;9.20;99.90;;;;;;5043001;28;20042;-80
2022/12/20 02:51:59;;;;;;;3.38;2.67;;;9.10;99.90;;;;;;5067790;28;20378;-80
2022/12/20 02:54:27;;;;;;;4.38;2.50;;;9.10;99.90;;;;;;5068231;28;20063;-79
2022/12/20 02:57:19;;;;;;;5.32;2.65;;;9.20;99.90;;;;;;5045637;28;20040;-79
2022/12/20 02:59:56;;;;;;;3.47;2.55;;;9.10;99.90;;;;;;5084904;28;20043;-79
2022/12/20 03:02:25;;;;;;;6.32;2.88;;;9.20;99.90;;;;;;5066642;28;20036;-80
2022/12/20 03:04:53;;;;;;;4.15;2.40;;;9.20;99.90;;;;;;5067670;28;20040;-79
2022/12/20 03:07:19;;;;;;;3.00;2.28;;;9.20;99.90;;;;;;5079056;28;20040;-80
2022/12/20 03:09:46;;;;;;;4.13;3.25;;;9.10;99.90;;;;;;5084160;28;20031;-79
2022/12/20 03:12:17;;;;;;;3.83;1.95;;;9.20;99.90;;;;;;5085242;28;20039;-79
2022/12/20 03:14:44;;;;;;;3.30;2.20;;;9.20;99.90;;;;;;5084559;28;20028;-79
2022/12/20 03:17:13;;;;;;;2.75;2.33;;;9.30;99.90;;;;;;5061065;28;20044;-79
2022/12/20 03:19:40;;;;;;;4.68;2.42;;;9.30;99.90;;;;;;5086072;28;20335;-79
2022/12/20 03:22:06;;;;;;;3.00;2.58;;;9.20;99.90;;;;;;5067727;28;20506;-79
2022/12/20 03:24:33;;;;;;;4.78;3.10;;;9.20;99.90;;;;;;5084719;28;20036;-79
2022/12/20 03:27:00;;;;;;;4.25;2.80;;;9.20;99.90;;;;;;5061191;28;20040;-78
2022/12/20 03:29:27;;;;;;;3.42;2.67;;;9.20;99.90;;;;;;5067711;28;20036;-79
2022/12/20 03:31:53;;;;;;;4.40;2.42;;;9.20;99.90;;;;;;5086462;28;20032;-78
2022/12/20 03:34:19;;;;;;;4.28;2.33;;;9.20;99.90;;;;;;5086025;28;20027;-78
2022/12/20 03:36:46;;;;;;;2.90;1.70;;;9.10;99.90;;;;;;5062438;28;20058;-78
2022/12/20 03:39:13;;;;;;;3.42;2.05;;;9.10;99.90;;;;;;5057763;28;20027;-78
2022/12/20 03:41:40;;;;;;;8.63;3.47;;;9.10;99.90;;;;;;5085071;28;20047;-79
2022/12/20 03:44:09;;;;;;;4.40;2.17;;;9.10;99.90;;;;;;5067781;28;20473;-78
2022/12/20 03:46:35;;;;;;;2.85;1.80;;;9.10;99.90;;;;;;5079828;28;20487;-78
2022/12/20 03:49:03;;;;;;;2.90;1.83;;;9.10;99.90;;;;;;5058982;28;20029;-78
2022/12/20 03:51:30;;;;;;;3.25;2.35;;;9.10;99.90;;;;;;5067263;28;20325;-78
2022/12/20 03:53:57;;;;;;;5.00;3.08;;;9.10;99.90;;;;;;5051723;28;20040;-79
2022/12/20 03:56:34;;;;;;;3.92;2.47;;;9.10;99.90;;;;;;5080588;28;20823;-78
2022/12/20 03:59:03;;;;;;;3.95;2.70;;;9.10;99.90;;;;;;5081376;28;20040;-78
2022/12/20 04:01:35;;;;;;;6.43;3.58;;;9.10;99.90;;;;;;5066725;28;20418;-78
2022/12/20 04:04:02;;;;;;;3.35;2.28;;;9.10;99.90;;;;;;5080683;28;20040;-78
2022/12/20 04:06:28;;;;;;;3.53;2.17;;;9.10;99.90;;;;;;5082377;28;20044;-78
2022/12/20 04:08:55;;;;;;;3.35;3.05;;;9.10;99.90;;;;;;5063341;28;20044;-78
2022/12/20 04:11:28;;;;;;;5.18;3.40;;;9.10;99.90;;;;;;5067245;28;20039;-78
2022/12/20 04:14:20;;;;;;;4.57;3.30;;;9.10;99.90;;;;;;5079492;28;20276;-78
2022/12/20 04:16:48;;;;;;;4.05;2.60;;;9.10;99.90;;;;;;5079257;28;20040;-78
2022/12/20 04:19:15;;;;;;;4.32;3.63;;;9.10;99.90;;;;;;5066103;28;20040;-78
2022/12/20 04:21:46;;;;;;;7.03;3.92;;;9.10;99.90;;;;;;5060000;28;20044;-78
2022/12/20 04:24:14;;;;;;;5.75;3.80;;;9.20;99.90;;;;;;5066966;28;20032;-78
2022/12/20 04:26:48;;;;;;;5.72;3.25;;;9.20;99.90;;;;;;5078991;28;20491;-77
2022/12/20 04:29:15;;;;;;;4.10;3.47;;;9.20;99.90;;;;;;5061941;28;20048;-78
2022/12/20 04:31:43;;;;;;;5.65;4.20;;;9.20;99.90;;;;;;5084248;28;20036;-78
2022/12/20 04:34:09;;;;;;;5.53;3.25;;;9.30;99.90;;;;;;5066444;28;20039;-78
2022/12/20 04:36:36;;;;;;;4.50;4.05;;;9.30;99.90;;;;;;5062865;28;20080;-78
2022/12/20 04:39:07;;;;;;;4.57;3.63;;;9.30;99.90;;;;;;5081239;28;20035;-77
2022/12/20 04:41:42;;;;;;;5.50;4.25;;;9.30;99.90;;;;;;5083466;28;20063;-78
2022/12/20 04:44:12;;;;;;;4.93;3.28;;;9.40;99.90;;;;;;5069663;28;20028;-78
2022/12/20 04:46:38;;;;;;;5.38;3.72;;;9.40;99.90;;;;;;5079593;28;20146;-77
2022/12/20 04:49:09;;;;;;;5.55;3.53;;;9.40;99.90;;;;;;5068210;28;20032;-78
2022/12/20 04:51:39;;;;;;;4.55;2.88;;;9.40;99.90;;;;;;5053835;28;20032;-77
2022/12/20 04:54:05;;;;;;;4.55;3.17;;;9.40;99.90;;;;;;5086440;28;20055;-77
2022/12/20 04:56:41;;;;;;;4.43;3.53;;;9.50;99.90;;;;;;5082593;28;20482;-77
2022/12/20 04:59:11;;;;;;;6.38;3.33;;;9.50;99.90;;;;;;5067794;28;20040;-78
2022/12/20 05:01:39;;;;;;;4.15;3.75;;;9.50;99.90;;;;;;5087127;28;20039;-77
2022/12/20 05:04:05;;;;;;;5.18;3.22;;;9.50;99.90;;;;;;5086899;28;20035;-77
2022/12/20 05:06:36;;;;;;;5.40;3.90;;;9.50;99.90;;;;;;5082073;28;20040;-77
2022/12/20 05:09:02;;;;;;;6.53;3.63;;;9.50;99.90;;;;;;5063659;28;20047;-77
2022/12/20 05:11:30;;;;;;;6.97;3.80;;;9.60;99.90;;;;;;5086854;28;20667;-77
2022/12/20 05:13:57;;;;;;;3.80;3.38;;;9.60;99.90;;;;;;5086560;28;20383;-77
2022/12/20 05:16:23;;;;;;;6.30;3.33;;;9.70;99.90;;;;;;5083396;28;20032;-78
2022/12/20 05:18:50;;;;;;;8.52;3.88;;;9.60;99.90;;;;;;5070222;28;20032;-78
2022/12/20 05:27:08;;;;;;;6.03;4.60;;;9.70;99.90;;;;;;5062359;28;20044;-78
2022/12/20 05:29:34;;;;;;;6.53;3.45;;;9.70;99.90;;;;;;5054396;28;20043;-78
2022/12/20 05:32:01;;;;;;;4.47;3.03;;;9.70;99.90;;;;;;5063087;28;20428;-78
2022/12/20 05:34:27;;;;;;;6.88;2.83;;;9.70;99.90;;;;;;5086073;28;20032;-79
2022/12/20 05:36:55;;;;;;;7.40;3.17;;;9.70;99.90;;;;;;5079754;28;20071;-79
2022/12/20 05:39:24;;;;;;;4.82;3.10;;;9.70;99.90;;;;;;5069220;28;20530;-79
2022/12/20 05:41:54;;;;;;;3.85;2.47;;;9.70;99.90;;;;;;5086478;28;20043;-79
2022/12/20 05:44:24;;;;;;;5.15;3.80;;;9.70;99.90;;;;;;5086466;28;20032;-79
2022/12/20 05:46:53;;;;;;;3.78;2.90;;;9.70;99.90;;;;;;5080327;28;20090;-80
2022/12/20 05:49:25;;;;;;;6.80;4.47;;;9.70;99.90;;;;;;5082848;28;20024;-80
2022/12/20 05:51:53;;;;;;;5.68;2.92;;;9.70;99.90;;;;;;5086246;28;20032;-80
2022/12/20 05:54:24;;;;;;;3.33;2.65;;;9.70;99.90;;;;;;5068787;28;20040;-80
2022/12/20 05:57:10;;;;;;;4.03;2.78;;;9.70;99.90;;;;;;5080103;28;20066;-80
2022/12/20 05:59:40;;;;;;;7.22;4.05;;;9.70;99.90;;;;;;5068211;28;20047;-82
2022/12/20 06:02:12;;;;;;;;;;;9.70;99.90;;;;;;5069469;28;20040;-82
2022/12/20 06:04:39;;;;;;;5.05;3.35;;;9.70;99.90;;;;;;5085364;28;19919;-82
2022/12/20 06:07:13;;;;;;;3.42;2.55;;;9.70;99.90;;;;;;5075476;28;20028;-83
2022/12/20 06:09:41;;;;;;;4.70;3.40;;;9.70;99.90;;;;;;5055689;28;20239;-81
2022/12/20 06:12:12;;;;;;;4.07;3.25;;;9.70;99.90;;;;;;5052834;28;20035;-79
2022/12/20 06:14:39;;;;;;;4.47;3.75;;;9.70;99.90;;;;;;5065992;28;20479;-80
2022/12/20 06:17:06;;;;;;;8.27;4.80;;;9.60;99.90;;;;;;5078087;28;20084;-82
2022/12/20 06:19:33;;;;;;;6.35;3.95;;;9.70;99.90;;;;;;5061079;28;20028;-81
2022/12/20 06:22:00;;;;;;;5.43;3.95;;;9.70;99.90;;;;;;5083312;28;20036;-79
2022/12/20 06:24:41;;;;;;;4.47;3.35;;;9.70;99.90;;;;;;5065179;28;20530;-81
2022/12/20 06:27:10;;;;;;;4.30;3.80;;;9.70;99.90;;;;;;5060085;28;20568;-79
2022/12/20 06:29:37;;;;;;;4.47;3.22;;;9.70;99.90;;;;;;5082118;28;20471;-79
2022/12/20 06:32:08;;;;;;;3.78;3.17;;;9.70;99.90;;;;;;5066851;28;20060;-80
2022/12/20 06:34:35;;;;;;;8.27;3.90;;;9.60;99.90;;;;;;5068395;28;20348;-80
2022/12/20 06:37:02;;;;;;;6.20;4.50;;;9.70;99.90;;;;;;5077604;28;20534;-79
2022/12/20 06:39:32;;;;;;;7.28;4.47;;;9.70;99.90;;;;;;5061934;28;20453;-79
2022/12/20 06:42:03;;;;;;;7.65;5.70;;;9.70;99.90;;;;;;5079847;28;20044;-80
2022/12/20 06:44:30;;;;;;;6.18;4.82;;;9.70;99.90;;;;;;5064210;28;20051;-79
2022/12/20 06:46:56;;;;;;;7.93;5.85;;;9.70;99.90;;;;;;5088243;28;20418;-79
2022/12/20 06:49:23;;;;;;;7.40;5.57;;;9.70;99.90;;;;;;5062522;28;20044;-80
2022/12/20 06:51:50;;;;;;;6.93;4.53;;;9.70;99.90;;;;;;5066692;28;20054;-79
2022/12/20 06:54:21;;;;;;;5.85;4.00;;;9.70;99.90;;;;;;5081164;28;20036;-79
2022/12/20 06:56:47;;;;;;;5.10;3.55;;;9.70;99.90;;;;;;5069227;28;20039;-83
2022/12/20 06:59:15;;;;;;;4.93;3.80;;;9.70;99.90;;;;;;5099771;28;20102;-79
2022/12/20 07:01:42;;;;;;;5.50;3.78;;;9.70;99.90;;;;;;5067459;28;20046;-79
2022/12/20 07:04:08;;;;;;;7.25;4.55;;;9.70;99.90;;;;;;5067639;28;20683;-78
2022/12/20 07:06:35;;;;;;;5.80;3.55;;;9.70;99.90;;;;;;5081056;28;20059;-78
2022/12/20 07:09:02;;;;;;;5.43;3.83;;;9.70;99.90;;;;;;5079655;28;20048;-78
2022/12/20 07:11:29;;;;;;;6.72;5.00;;;9.70;99.90;;;;;;5066444;28;20406;-77
2022/12/20 07:13:56;;;;;;;7.45;4.85;;;9.70;99.90;;;;;;5085623;28;20082;-79
2022/12/20 07:16:23;;;;;;;6.10;4.63;;;9.70;99.90;;;;;;5082697;28;20402;-78
2022/12/20 07:18:51;;;;;;;7.57;4.25;;;9.70;99.90;;;;;;5061595;28;20043;-78
2022/12/20 07:21:19;;;;;;;5.82;3.80;;;9.70;99.90;;;;;;5083208;28;20048;-77
2022/12/20 07:23:46;;;;;;;8.82;5.03;;;9.60;99.90;;;;;;5111156;27;20055;-78
2022/12/20 07:26:14;;;;;;;5.45;3.47;;;9.60;99.90;;;;;;5083747;28;20031;-78
2022/12/20 07:28:41;;;;;;;5.70;4.47;;;9.60;99.90;;;;;;5076761;28;20028;-78
2022/12/20 07:31:08;;;;;;;5.70;4.20;;;9.60;99.90;;;;;;5083211;28;20054;-78
2022/12/20 07:33:36;;;;;;;5.28;3.65;;;9.60;99.90;;;;;;5073377;28;20051;-78
2022/12/20 07:36:04;;;;;;;4.35;3.80;;;9.60;99.90;;;;;;5058257;28;20055;-78
2022/12/20 07:38:32;;;;;;;5.45;3.58;;;9.60;99.90;;;;;;5060964;28;20036;-78
2022/12/20 07:40:58;;;;;;;4.22;2.78;;;9.60;99.90;;;;;;5066699;28;20032;-78
2022/12/20 07:43:24;;;;;;;3.55;3.22;;;9.60;99.90;;;;;;5066834;28;20134;-78
2022/12/20 07:45:55;;;;;;;5.53;3.47;;;9.60;99.90;;;;;;5083580;28;20036;-78
2022/12/20 07:48:23;;;;;;;4.00;2.72;;;9.60;99.90;;;;;;5075721;28;20058;-78
2022/12/20 07:50:56;;;;;;;4.93;3.28;;;9.60;99.90;;;;;;5083608;28;20036;-78
2022/12/20 07:53:26;;;;;;;5.78;3.45;;;9.70;99.90;;;;;;5084358;28;20514;-77
2022/12/20 07:55:54;;;;;;;6.38;3.80;;;9.70;99.90;;;;;;5058810;28;20031;-78
2022/12/20 07:58:21;;;;;;;4.82;2.70;;;9.70;99.90;;;;;;5059432;28;20392;-77
2022/12/20 08:00:48;;;;;;;5.28;2.97;;;9.70;99.90;;;;;;5083721;28;20040;-78
2022/12/20 08:03:18;;;;;;;6.28;3.05;;;9.80;99.90;;;;;;5066810;28;20470;-77
2022/12/20 08:05:48;;;;;;;4.47;3.00;;;9.80;99.90;;;;;;5066222;28;20040;-78
2022/12/20 08:08:17;;;;;;;5.95;2.92;;;9.80;99.90;;;;;;5075840;28;20040;-77
2022/12/20 08:10:43;;;;;;;5.22;2.80;;;9.80;99.90;;;;;;5083766;28;20039;-77
2022/12/20 08:13:10;;;;;;;5.25;3.15;;;9.80;99.90;;;;;;5084343;28;20036;-77
2022/12/20 08:15:36;;;;;;;3.40;2.83;;;9.90;99.90;;;;;;5075635;28;20032;-78
2022/12/20 08:18:05;;;;;;;4.80;2.60;;;9.90;99.90;;;;;;5058748;28;20503;-77
2022/12/20 08:20:32;;;;;;;5.70;3.13;;;9.90;99.90;;;;;;5066458;28;20036;-78
2022/12/20 08:22:58;;;;;;;3.67;2.58;;;9.80;99.90;;;;;;5067236;28;20051;-78
2022/12/20 08:25:24;;;;;;;6.40;4.45;;;9.80;99.90;;;;;;5088489;28;20557;-77
2022/12/20 08:27:52;;;;;;;5.32;3.88;;;9.80;99.90;;;;;;5080364;28;20036;-77
2022/12/20 08:30:18;;;;;;;6.95;4.55;;;9.80;99.90;;;;;;5088844;28;20040;-78
2022/12/20 08:32:44;;;;;;;3.95;2.88;;;9.90;99.90;;;;;;5085089;28;20059;-77
2022/12/20 08:35:12;;;;;;;4.97;3.22;;;9.80;99.90;;;;;;5065183;28;20455;-79
2022/12/20 08:37:39;;;;;;;9.52;6.13;;;9.90;99.90;;;;;;5059572;28;20032;-77
2022/12/20 08:40:07;;;;;;;5.63;4.28;;;9.90;99.90;;;;;;5085853;28;20433;-78
2022/12/20 08:42:33;;;;;;;6.93;5.32;;;9.90;99.90;;;;;;5085600;28;20044;-78
2022/12/20 08:45:00;;;;;;;10.15;5.65;;;9.90;99.90;;;;;;5084400;28;20415;-77
2022/12/20 08:47:29;;;;;;;7.32;4.22;;;9.90;99.90;;;;;;5074980;28;20426;-76
2022/12/20 08:49:55;;;;;;;7.05;6.03;;;9.90;99.90;;;;;;5050825;28;20036;-78
2022/12/20 08:52:22;;;;;;;6.20;3.47;;;9.90;99.90;;;;;;5085337;28;20040;-78
2022/12/20 08:54:48;;;;;;;4.60;3.47;;;9.90;99.90;;;;;;5067824;28;20058;-76
2022/12/20 08:57:14;;;;;;;9.90;4.05;;;9.90;99.90;;;;;;5077749;28;20936;-76
2022/12/20 08:59:41;;;;;;;9.57;4.68;;;9.90;99.90;;;;;;5086410;28;20400;-79
2022/12/20 09:02:07;;;;;;;8.80;4.80;;;10.00;99.90;;;;;;5085952;28;20470;-80
2022/12/20 09:04:33;;;;;;;8.88;4.43;;;10.00;99.90;;;;;;5086117;28;20044;-82
2022/12/20 09:07:00;;;;;;;9.32;5.90;;;10.00;99.90;;;;;;5063828;28;20070;-80
2022/12/20 09:09:26;;;;;;;6.80;4.90;;;10.00;99.90;;;;;;5085141;28;20032;-83
2022/12/20 09:11:53;;;;;;;5.63;3.67;;;10.00;99.90;;;;;;5086041;28;20040;-77
2022/12/20 09:14:20;;;;;;;5.63;3.83;;;10.00;99.90;;;;;;5068799;28;20047;-76
2022/12/20 09:16:46;;;;;;;4.20;3.17;;;10.00;99.90;;;;;;5080503;28;20612;-77
2022/12/20 09:19:13;;;;;;;4.63;3.17;;;10.00;99.90;;;;;;5066263;28;20032;-77
2022/12/20 09:21:40;;;;;;;5.68;3.08;;;10.00;99.90;;;;;;5101617;28;20494;-77
2022/12/20 09:24:08;;;;;;;5.47;3.55;;;9.90;99.90;;;;;;5084083;28;20037;-78
2022/12/20 09:26:34;;;;;;;4.82;3.15;;;9.90;99.90;;;;;;5083403;28;20032;-77
2022/12/20 09:29:01;;;;;;;6.30;3.50;;;9.90;99.90;;;;;;5080500;28;20025;-80
2022/12/20 09:31:28;;;;;;;8.27;4.25;;;9.90;99.90;;;;;;5086434;28;20454;-79
2022/12/20 09:33:56;;;;;;;4.57;3.35;;;9.80;99.90;;;;;;5067712;28;20735;-80
2022/12/20 09:36:24;;;;;;;7.50;3.67;;;9.80;99.90;;;;;;5066336;28;20047;-79
2022/12/20 09:38:52;;;;;;;5.25;4.32;;;9.80;99.90;;;;;;5078754;28;20031;-78
2022/12/20 09:41:30;;;;;;;7.57;4.32;;;9.80;99.90;;;;;;5084426;28;20036;-80
2022/12/20 09:43:59;;;;;;;5.60;3.55;;;9.80;99.90;;;;;;5095037;28;20036;-80
2022/12/20 09:46:26;;;;;;;6.90;5.38;;;9.80;99.90;;;;;;5082437;28;20040;-81
2022/12/20 09:48:53;;;;;;;11.73;9.75;;;9.80;99.90;;;;;;5079471;28;20430;-81
2022/12/20 09:51:45;;;;;;;8.10;5.68;;;9.80;99.90;;;;;;5085164;28;20040;-81
2022/12/20 09:54:12;;;;;;;8.67;4.50;;;9.90;99.90;;;;;;5067881;28;20044;-80
2022/12/20 09:56:50;;;;;;;5.28;3.20;;;9.80;99.90;;;;;;5064431;28;20036;-81
2022/12/20 09:59:20;;;;;;;5.10;3.50;;;9.90;99.90;;;;;;5065713;28;20036;-80
2022/12/20 10:01:49;;;;;;;7.28;2.95;;;9.90;99.90;;;;;;5067571;28;20035;-81
2022/12/20 10:04:25;;;;;;;5.30;2.67;;;9.90;99.90;;;;;;5077509;28;20040;-81
2022/12/20 10:07:35;;;;;;;8.10;4.28;;;9.90;99.90;;;;;;5045170;28;20044;-82
2022/12/20 10:10:01;;;;;;;4.75;2.95;;;9.90;99.90;;;;;;5085522;28;20035;-81
2022/12/20 10:12:41;;;;;;;6.40;4.13;;;9.90;99.90;;;;;;5064358;28;20248;-81
2022/12/20 10:15:44;;;;;;;6.95;4.50;;;9.90;99.90;;;;;;5051315;28;20032;-80
2022/12/20 10:18:35;;;;;;;6.70;4.20;;;9.90;99.90;;;;;;5039068;28;20032;-80
2022/12/20 10:21:14;;;;;;;5.07;3.30;;;9.90;99.90;;;;;;5062551;28;20525;-80
2022/12/20 10:24:01;;;;;;;3.20;2.67;;;9.90;99.90;;;;;;5084063;28;20401;-81
2022/12/20 10:26:28;;;;;;;7.35;4.60;;;9.90;99.90;;;;;;5081803;28;20055;-79
2022/12/20 10:28:55;;;;;;;6.28;4.30;;;9.90;99.90;;;;;;5061145;28;20040;-80
2022/12/20 10:31:21;;;;;;;6.78;4.78;;;9.90;99.90;;;;;;5085155;28;20062;-80
2022/12/20 10:33:48;;;;;;;6.90;3.78;;;9.90;99.90;;;;;;5066291;28;20043;-82
2022/12/20 10:36:25;;;;;;;6.38;3.97;;;9.90;99.90;;;;;;5066936;28;20040;-82
2022/12/20 10:38:57;;;;;;;8.98;3.85;;;9.90;99.90;;;;;;5078183;28;20035;-80
2022/12/20 10:41:27;;;;;;;5.85;4.03;;;9.90;99.90;;;;;;5066870;28;20044;-80
2022/12/20 10:44:03;;;;;;;8.50;5.70;;;9.90;99.90;;;;;;5067205;28;20036;-81
2022/12/20 10:46:45;;;;;;;10.02;5.30;;;9.90;99.90;;;;;;5080884;28;20036;-79
2022/12/20 10:49:33;;;;;;;6.38;4.55;;;9.90;99.90;;;;;;5064033;28;20274;-81
2022/12/20 10:52:17;;;;;;;6.57;3.58;;;9.90;99.90;;;;;;5067186;28;20024;-81
2022/12/20 10:54:45;;;;;;;7.90;5.38;;;9.90;99.90;;;;;;5065574;28;20478;-81
2022/12/20 10:57:22;;;;;;;6.47;3.90;;;9.90;99.90;;;;;;5059761;28;20035;-80
2022/12/20 10:59:59;;;;;;;5.80;4.25;;;9.90;99.90;;;;;;5066193;28;20039;-81
2022/12/20 11:02:30;;;;;;;10.98;6.25;;;9.90;99.90;;;;;;5083609;28;20036;-80
2022/12/20 11:05:10;;;;;;;9.40;6.47;;;9.90;99.90;;;;;;5082225;28;20028;-82
2022/12/20 11:07:50;;;;;;;11.23;6.38;;;9.90;99.90;;;;;;5076418;28;20047;-80
2022/12/20 11:10:19;;;;;;;8.88;6.45;;;9.90;99.90;;;;;;5066566;28;20080;-80
2022/12/20 11:12:57;;;;;;;8.65;6.68;;;9.90;99.90;;;;;;5079178;28;20043;-80
2022/12/20 11:15:29;;;;;;;7.85;5.90;;;10.00;99.90;;;;;;5062901;28;20047;-80
2022/12/20 11:18:11;;;;;;;8.63;6.00;;;9.90;99.90;;;;;;5073407;28;20387;-80
2022/12/20 11:20:41;;;;;;;7.45;4.55;;;9.90;99.90;;;;;;5082108;28;20035;-80
2022/12/20 11:23:45;;;;;;;7.53;4.90;;;9.90;99.90;;;;;;5064659;28;20357;-80
2022/12/20 11:26:18;;;;;;;6.15;4.90;;;10.00;99.90;;;;;;5065173;28;20044;-80
2022/12/20 11:29:17;;;;;;;3.72;3.15;;;10.00;99.90;;;;;;5061311;28;20043;-81
2022/12/20 11:32:02;;;;;;;8.82;4.90;;;10.00;99.90;;;;;;5068173;28;20414;-80
2022/12/20 11:34:35;;;;;;;6.82;4.78;;;10.00;99.90;;;;;;5066182;28;20490;-80
2022/12/20 11:37:13;;;;;;;6.22;4.28;;;10.00;99.90;;;;;;5059596;28;20134;-81
2022/12/20 11:40:07;;;;;;;7.55;5.30;;;10.00;99.90;;;;;;5116585;27;20511;-81
2022/12/20 11:43:06;;;;;;;6.65;5.18;;;10.10;99.90;;;;;;5051078;28;20043;-80
2022/12/20 11:45:41;;;;;;;8.95;5.65;;;10.10;99.90;;;;;;5084160;28;20055;-80
2022/12/20 11:48:25;;;;;;;8.43;4.57;;;10.10;99.90;;;;;;5054210;28;20032;-80
2022/12/20 11:51:14;;;;;;;8.43;5.55;;;10.10;99.90;;;;;;5067324;28;20043;-80
2022/12/20 11:53:57;;;;;;;7.53;5.18;;;10.10;99.90;;;;;;5066666;28;20036;-81
2022/12/20 11:56:35;;;;;;;7.97;5.20;;;10.10;99.90;;;;;;5081521;28;20032;-80
2022/12/20 11:59:16;;;;;;;6.78;5.18;;;10.10;99.90;;;;;;5083158;28;20048;-81
2022/12/20 12:02:18;;;;;;;11.45;7.60;;;10.10;99.90;;;;;;5072104;28;20471;-80
2022/12/20 12:05:02;;;;;;;10.65;5.05;;;10.10;99.90;;;;;;5064986;28;20398;-81
2022/12/20 12:07:31;;;;;;;6.32;5.18;;;10.10;99.90;;;;;;5063832;28;20382;-81
2022/12/20 12:10:16;;;;;;;7.70;5.60;;;10.10;99.90;;;;;;5088803;28;20398;-80
2022/12/20 12:12:49;;;;;;;7.40;5.53;;;10.10;99.90;;;;;;5080172;28;20043;-81
2022/12/20 12:16:00;;;;;;;8.65;6.05;;;10.20;99.90;;;;;;5089201;28;20040;-81
2022/12/20 12:18:32;;;;;;;10.50;5.88;;;10.20;99.90;;;;;;5054549;28;20534;-81
2022/12/20 12:21:09;;;;;;;15.02;10.60;;;10.20;99.90;;;;;;5070746;28;20056;-82
2022/12/20 12:23:56;;;;;;;11.35;7.13;;;10.20;99.90;;;;;;5087750;28;20040;-81
2022/12/20 12:26:23;;;;;;;9.80;7.13;;;10.20;99.90;;;;;;5080828;28;20466;-80
2022/12/20 12:28:54;;;;;;;11.57;7.28;;;10.20;99.90;;;;;;5066109;28;20028;-81
2022/12/20 12:31:55;;;;;;;9.65;6.70;;;10.20;99.90;;;;;;5071535;28;20035;-81
2022/12/20 12:34:39;;;;;;;8.73;6.25;;;10.30;99.90;;;;;;5056206;28;20044;-82
2022/12/20 12:37:48;;;;;;;12.52;6.30;;;10.20;99.90;;;;;;5064991;28;20043;-81
2022/12/20 12:40:59;;;;;;;9.63;5.80;;;10.30;99.90;;;;;;5067226;28;20067;-81
2022/12/20 12:43:37;;;;;;;8.85;6.07;;;10.30;99.90;;;;;;5088882;28;20052;-82
2022/12/20 12:46:15;;;;;;;13.43;6.28;;;10.20;99.90;;;;;;5087097;28;20063;-83
2022/12/20 12:49:08;;;;;;;9.15;6.22;;;10.20;99.90;;;;;;5064867;28;20036;-82
2022/12/20 12:51:38;;;;;;;8.90;6.00;;;10.20;99.90;;;;;;5054414;28;20048;-81
2022/12/20 12:54:16;;;;;;;8.07;6.50;;;10.20;99.90;;;;;;5070869;28;20045;-80
2022/12/20 12:56:54;;;;;;;10.18;5.70;;;10.20;99.90;;;;;;5084126;28;20040;-80
2022/12/20 12:59:44;;;;;;;10.95;6.50;;;10.30;99.90;;;;;;5084689;28;20044;-80
2022/12/20 13:02:14;;;;;;;7.60;6.00;;;10.30;99.90;;;;;;5087971;28;20032;-80
2022/12/20 13:04:58;;;;;;;9.38;6.82;;;10.30;99.90;;;;;;5087835;28;20443;-80
2022/12/20 13:07:39;;;;;;;11.70;7.93;;;10.30;99.90;;;;;;5064468;28;20491;-80
2022/12/20 13:10:15;;;;;;;8.20;7.10;;;10.30;99.90;;;;;;5085632;28;20036;-80
2022/12/20 13:12:50;;;;;;;11.63;8.27;;;10.30;99.90;;;;;;5065257;28;20044;-79
2022/12/20 13:15:20;;;;;;;12.45;8.73;;;10.30;99.90;;;;;;5087514;28;20402;-79
2022/12/20 13:18:09;;;;;;;10.95;8.25;;;10.30;99.90;;;;;;5063367;28;20047;-80
2022/12/20 13:20:36;;;;;;;11.65;8.85;;;10.30;99.90;;;;;;5061940;28;20047;-80
2022/12/20 13:23:10;;;;;;;15.30;11.20;;;10.30;99.90;;;;;;5066559;28;20036;-79
2022/12/20 13:25:50;;;;;;;11.32;8.95;;;10.30;99.90;;;;;;5086984;28;20051;-80
2022/12/20 13:28:23;;;;;;;10.18;7.65;;;10.30;99.90;;;;;;5060242;28;20036;-79